sensor_id;sensor_type;location;lat;lon;timestamp;P1;durP1;ratioP1;P2;durP2;ratioP2
9208;SDS011;4639;48.862;9.188;2022-09-21T00:01:11;7.93;;;5.88;;
9208;SDS011;4639;48.862;9.188;2022-09-21T00:03:37;9.23;;;6.20;;
9208;SDS011;4639;48.862;9.188;2022-09-21T00:06:06;8.27;;;6.30;;
9208;SDS011;4639;48.862;9.188;2022-09-21T00:08:36;7.93;;;6.10;;
9208;SDS011;4639;48.862;9.188;2022-09-21T00:11:02;13.30;;;7.57;;
9208;SDS011;4639;48.862;9.188;2022-09-21T00:13:29;8.93;;;7.03;;
9208;SDS011;4639;48.862;9.188;2022-09-21T00:15:57;8.02;;;7.03;;
9208;SDS011;4639;48.862;9.188;2022-09-21T00:18:23;7.90;;;6.25;;
9208;SDS011;4639;48.862;9.188;2022-09-21T00:20:49;9.77;;;6.80;;
9208;SDS011;4639;48.862;9.188;2022-09-21T00:23:16;10.63;;;6.43;;
9208;SDS011;4639;48.862;9.188;2022-09-21T00:25:42;9.77;;;6.55;;
9208;SDS011;4639;48.862;9.188;2022-09-21T00:28:07;9.52;;;7.75;;
9208;SDS011;4639;48.862;9.188;2022-09-21T00:30:33;11.65;;;6.82;;
9208;SDS011;4639;48.862;9.188;2022-09-21T00:32:59;10.95;;;6.97;;
9208;SDS011;4639;48.862;9.188;2022-09-21T00:35:24;11.68;;;7.30;;
9208;SDS011;4639;48.862;9.188;2022-09-21T00:37:50;8.10;;;6.80;;
9208;SDS011;4639;48.862;9.188;2022-09-21T00:40:15;9.60;;;6.80;;
9208;SDS011;4639;48.862;9.188;2022-09-21T00:42:41;8.63;;;6.50;;
9208;SDS011;4639;48.862;9.188;2022-09-21T00:45:09;9.50;;;7.40;;
9208;SDS011;4639;48.862;9.188;2022-09-21T00:47:45;8.52;;;6.65;;
9208;SDS011;4639;48.862;9.188;2022-09-21T00:50:17;10.63;;;6.80;;
9208;SDS011;4639;48.862;9.188;2022-09-21T00:52:46;11.27;;;7.57;;
9208;SDS011;4639;48.862;9.188;2022-09-21T00:57:47;10.10;;;7.25;;
9208;SDS011;4639;48.862;9.188;2022-09-21T01:00:16;10.75;;;7.18;;
9208;SDS011;4639;48.862;9.188;2022-09-21T01:02:42;9.40;;;6.80;;
9208;SDS011;4639;48.862;9.188;2022-09-21T01:05:09;14.30;;;8.07;;
9208;SDS011;4639;48.862;9.188;2022-09-21T01:07:35;9.98;;;6.88;;
9208;SDS011;4639;48.862;9.188;2022-09-21T01:10:05;8.80;;;6.30;;
9208;SDS011;4639;48.862;9.188;2022-09-21T01:20:50;9.43;;;5.88;;
9208;SDS011;4639;48.862;9.188;2022-09-21T01:23:41;9.73;;;6.57;;
9208;SDS011;4639;48.862;9.188;2022-09-21T01:31:48;7.10;;;5.97;;
9208;SDS011;4639;48.862;9.188;2022-09-21T01:34:52;8.82;;;5.88;;
9208;SDS011;4639;48.862;9.188;2022-09-21T01:37:23;7.55;;;6.43;;
9208;SDS011;4639;48.862;9.188;2022-09-21T01:40:00;7.60;;;6.68;;
9208;SDS011;4639;48.862;9.188;2022-09-21T01:42:33;7.03;;;5.65;;
9208;SDS011;4639;48.862;9.188;2022-09-21T01:45:01;7.07;;;6.05;;
9208;SDS011;4639;48.862;9.188;2022-09-21T01:47:29;6.82;;;6.10;;
9208;SDS011;4639;48.862;9.188;2022-09-21T01:49:55;7.60;;;5.97;;
9208;SDS011;4639;48.862;9.188;2022-09-21T01:52:30;8.35;;;6.40;;
9208;SDS011;4639;48.862;9.188;2022-09-21T02:00:56;8.65;;;6.00;;
9208;SDS011;4639;48.862;9.188;2022-09-21T02:03:28;7.28;;;6.07;;
9208;SDS011;4639;48.862;9.188;2022-09-21T02:06:03;8.45;;;6.50;;
9208;SDS011;4639;48.862;9.188;2022-09-21T02:08:30;8.00;;;6.97;;
9208;SDS011;4639;48.862;9.188;2022-09-21T02:10:58;9.13;;;5.88;;
9208;SDS011;4639;48.862;9.188;2022-09-21T02:13:25;7.07;;;5.63;;
9208;SDS011;4639;48.862;9.188;2022-09-21T02:16:03;8.77;;;6.60;;
9208;SDS011;4639;48.862;9.188;2022-09-21T02:18:40;9.38;;;6.47;;
9208;SDS011;4639;48.862;9.188;2022-09-21T02:21:27;10.40;;;6.55;;
9208;SDS011;4639;48.862;9.188;2022-09-21T02:26:33;8.93;;;6.78;;
9208;SDS011;4639;48.862;9.188;2022-09-21T02:31:44;8.15;;;6.97;;
9208;SDS011;4639;48.862;9.188;2022-09-21T02:34:18;10.05;;;6.75;;
9208;SDS011;4639;48.862;9.188;2022-09-21T02:36:52;11.27;;;7.78;;
9208;SDS011;4639;48.862;9.188;2022-09-21T02:39:28;9.77;;;7.47;;
9208;SDS011;4639;48.862;9.188;2022-09-21T02:42:06;9.10;;;7.43;;
9208;SDS011;4639;48.862;9.188;2022-09-21T02:47:50;10.55;;;6.45;;
9208;SDS011;4639;48.862;9.188;2022-09-21T02:50:19;8.88;;;7.28;;
9208;SDS011;4639;48.862;9.188;2022-09-21T02:52:53;8.63;;;7.20;;
9208;SDS011;4639;48.862;9.188;2022-09-21T02:55:21;8.73;;;6.90;;
9208;SDS011;4639;48.862;9.188;2022-09-21T02:57:47;9.43;;;6.93;;
9208;SDS011;4639;48.862;9.188;2022-09-21T03:00:16;9.35;;;7.32;;
9208;SDS011;4639;48.862;9.188;2022-09-21T03:02:43;13.73;;;7.13;;
9208;SDS011;4639;48.862;9.188;2022-09-21T03:05:09;11.20;;;7.07;;
9208;SDS011;4639;48.862;9.188;2022-09-21T03:07:37;8.02;;;6.70;;
9208;SDS011;4639;48.862;9.188;2022-09-21T03:10:03;6.78;;;6.18;;
9208;SDS011;4639;48.862;9.188;2022-09-21T03:12:30;9.88;;;7.38;;
9208;SDS011;4639;48.862;9.188;2022-09-21T03:14:56;7.90;;;6.65;;
9208;SDS011;4639;48.862;9.188;2022-09-21T03:17:22;9.35;;;6.97;;
9208;SDS011;4639;48.862;9.188;2022-09-21T03:19:48;10.20;;;7.00;;
9208;SDS011;4639;48.862;9.188;2022-09-21T03:22:14;9.60;;;6.90;;
9208;SDS011;4639;48.862;9.188;2022-09-21T03:24:41;9.68;;;6.85;;
9208;SDS011;4639;48.862;9.188;2022-09-21T03:27:10;14.13;;;6.78;;
9208;SDS011;4639;48.862;9.188;2022-09-21T03:29:40;8.18;;;7.03;;
9208;SDS011;4639;48.862;9.188;2022-09-21T03:32:05;10.35;;;7.00;;
9208;SDS011;4639;48.862;9.188;2022-09-21T03:34:31;9.55;;;6.22;;
9208;SDS011;4639;48.862;9.188;2022-09-21T03:36:58;9.88;;;6.53;;
9208;SDS011;4639;48.862;9.188;2022-09-21T03:39:27;9.18;;;7.03;;
9208;SDS011;4639;48.862;9.188;2022-09-21T03:41:53;7.85;;;6.18;;
9208;SDS011;4639;48.862;9.188;2022-09-21T03:44:20;8.55;;;6.80;;
9208;SDS011;4639;48.862;9.188;2022-09-21T03:46:46;8.35;;;6.50;;
9208;SDS011;4639;48.862;9.188;2022-09-21T03:49:12;9.57;;;6.97;;
9208;SDS011;4639;48.862;9.188;2022-09-21T03:51:38;9.60;;;6.40;;
9208;SDS011;4639;48.862;9.188;2022-09-21T03:54:03;8.63;;;6.32;;
9208;SDS011;4639;48.862;9.188;2022-09-21T03:56:29;10.82;;;6.38;;
9208;SDS011;4639;48.862;9.188;2022-09-21T03:58:55;7.68;;;6.38;;
9208;SDS011;4639;48.862;9.188;2022-09-21T04:01:20;7.47;;;6.03;;
9208;SDS011;4639;48.862;9.188;2022-09-21T04:03:46;11.73;;;7.22;;
9208;SDS011;4639;48.862;9.188;2022-09-21T04:06:12;7.10;;;5.90;;
9208;SDS011;4639;48.862;9.188;2022-09-21T04:08:38;10.80;;;6.50;;
9208;SDS011;4639;48.862;9.188;2022-09-21T04:11:10;9.20;;;6.80;;
9208;SDS011;4639;48.862;9.188;2022-09-21T04:13:37;8.27;;;6.40;;
9208;SDS011;4639;48.862;9.188;2022-09-21T04:16:02;9.18;;;6.28;;
9208;SDS011;4639;48.862;9.188;2022-09-21T04:18:28;8.15;;;6.25;;
9208;SDS011;4639;48.862;9.188;2022-09-21T04:20:54;6.65;;;5.82;;
9208;SDS011;4639;48.862;9.188;2022-09-21T04:23:19;6.15;;;5.38;;
9208;SDS011;4639;48.862;9.188;2022-09-21T04:25:47;7.30;;;6.18;;
9208;SDS011;4639;48.862;9.188;2022-09-21T04:28:15;7.22;;;5.82;;
9208;SDS011;4639;48.862;9.188;2022-09-21T04:30:41;10.27;;;7.35;;
9208;SDS011;4639;48.862;9.188;2022-09-21T04:33:06;7.72;;;6.90;;
9208;SDS011;4639;48.862;9.188;2022-09-21T04:35:32;10.95;;;9.32;;
9208;SDS011;4639;48.862;9.188;2022-09-21T04:37:57;10.07;;;8.63;;
9208;SDS011;4639;48.862;9.188;2022-09-21T04:40:23;9.88;;;8.07;;
9208;SDS011;4639;48.862;9.188;2022-09-21T04:42:50;10.30;;;7.13;;
9208;SDS011;4639;48.862;9.188;2022-09-21T04:45:19;9.60;;;7.50;;
9208;SDS011;4639;48.862;9.188;2022-09-21T04:47:46;8.77;;;7.72;;
9208;SDS011;4639;48.862;9.188;2022-09-21T04:50:11;10.45;;;8.05;;
9208;SDS011;4639;48.862;9.188;2022-09-21T04:52:37;9.68;;;7.57;;
9208;SDS011;4639;48.862;9.188;2022-09-21T04:55:04;9.23;;;7.32;;
9208;SDS011;4639;48.862;9.188;2022-09-21T04:57:30;9.70;;;7.43;;
9208;SDS011;4639;48.862;9.188;2022-09-21T04:59:56;11.02;;;7.50;;
9208;SDS011;4639;48.862;9.188;2022-09-21T05:02:21;11.30;;;8.20;;
9208;SDS011;4639;48.862;9.188;2022-09-21T05:04:47;8.23;;;7.43;;
9208;SDS011;4639;48.862;9.188;2022-09-21T05:07:13;10.38;;;8.15;;
9208;SDS011;4639;48.862;9.188;2022-09-21T05:09:39;11.70;;;7.50;;
9208;SDS011;4639;48.862;9.188;2022-09-21T05:12:24;10.80;;;8.52;;
9208;SDS011;4639;48.862;9.188;2022-09-21T05:14:49;10.20;;;7.68;;
9208;SDS011;4639;48.862;9.188;2022-09-21T05:17:15;9.70;;;8.00;;
9208;SDS011;4639;48.862;9.188;2022-09-21T05:19:41;15.85;;;8.38;;
9208;SDS011;4639;48.862;9.188;2022-09-21T05:22:06;11.23;;;8.32;;
9208;SDS011;4639;48.862;9.188;2022-09-21T05:24:32;9.32;;;8.20;;
9208;SDS011;4639;48.862;9.188;2022-09-21T05:26:58;12.02;;;8.02;;
9208;SDS011;4639;48.862;9.188;2022-09-21T05:29:23;10.80;;;8.25;;
9208;SDS011;4639;48.862;9.188;2022-09-21T05:32:04;13.60;;;8.15;;
9208;SDS011;4639;48.862;9.188;2022-09-21T05:40:02;10.48;;;8.13;;
9208;SDS011;4639;48.862;9.188;2022-09-21T05:42:29;11.23;;;7.82;;
9208;SDS011;4639;48.862;9.188;2022-09-21T05:44:55;10.25;;;7.28;;
9208;SDS011;4639;48.862;9.188;2022-09-21T06:01:27;15.35;;;7.70;;
9208;SDS011;4639;48.862;9.188;2022-09-21T06:04:07;13.35;;;8.10;;
9208;SDS011;4639;48.862;9.188;2022-09-21T06:06:36;15.73;;;8.25;;
9208;SDS011;4639;48.862;9.188;2022-09-21T06:09:02;12.57;;;7.70;;
9208;SDS011;4639;48.862;9.188;2022-09-21T06:11:27;10.80;;;7.97;;
9208;SDS011;4639;48.862;9.188;2022-09-21T06:13:53;18.27;;;7.90;;
9208;SDS011;4639;48.862;9.188;2022-09-21T06:16:19;15.02;;;7.55;;
9208;SDS011;4639;48.862;9.188;2022-09-21T06:18:44;11.35;;;7.15;;
9208;SDS011;4639;48.862;9.188;2022-09-21T06:21:10;18.35;;;8.85;;
9208;SDS011;4639;48.862;9.188;2022-09-21T06:23:35;13.43;;;8.20;;
9208;SDS011;4639;48.862;9.188;2022-09-21T06:26:01;10.70;;;8.73;;
9208;SDS011;4639;48.862;9.188;2022-09-21T06:28:27;9.20;;;7.70;;
9208;SDS011;4639;48.862;9.188;2022-09-21T06:30:54;10.45;;;7.68;;
9208;SDS011;4639;48.862;9.188;2022-09-21T06:33:20;8.40;;;6.82;;
9208;SDS011;4639;48.862;9.188;2022-09-21T06:35:53;10.20;;;7.88;;
9208;SDS011;4639;48.862;9.188;2022-09-21T06:38:21;11.90;;;7.70;;
9208;SDS011;4639;48.862;9.188;2022-09-21T06:40:48;8.23;;;6.90;;
9208;SDS011;4639;48.862;9.188;2022-09-21T06:43:14;13.15;;;7.95;;
9208;SDS011;4639;48.862;9.188;2022-09-21T06:45:40;13.45;;;8.82;;
9208;SDS011;4639;48.862;9.188;2022-09-21T06:48:05;12.10;;;8.70;;
9208;SDS011;4639;48.862;9.188;2022-09-21T06:50:31;15.18;;;9.25;;
9208;SDS011;4639;48.862;9.188;2022-09-21T06:53:00;16.60;;;9.60;;
9208;SDS011;4639;48.862;9.188;2022-09-21T06:55:27;13.35;;;9.15;;
9208;SDS011;4639;48.862;9.188;2022-09-21T06:57:58;15.88;;;9.25;;
9208;SDS011;4639;48.862;9.188;2022-09-21T07:00:25;17.50;;;8.60;;
9208;SDS011;4639;48.862;9.188;2022-09-21T07:02:51;11.13;;;8.30;;
9208;SDS011;4639;48.862;9.188;2022-09-21T07:05:17;15.82;;;9.80;;
9208;SDS011;4639;48.862;9.188;2022-09-21T07:07:42;11.25;;;8.20;;
9208;SDS011;4639;48.862;9.188;2022-09-21T07:10:08;15.02;;;8.95;;
9208;SDS011;4639;48.862;9.188;2022-09-21T07:12:34;12.25;;;7.68;;
9208;SDS011;4639;48.862;9.188;2022-09-21T07:15:00;11.10;;;7.13;;
9208;SDS011;4639;48.862;9.188;2022-09-21T07:17:30;12.60;;;7.28;;
9208;SDS011;4639;48.862;9.188;2022-09-21T07:20:00;10.85;;;7.22;;
9208;SDS011;4639;48.862;9.188;2022-09-21T07:22:28;11.98;;;7.00;;
9208;SDS011;4639;48.862;9.188;2022-09-21T07:24:54;7.90;;;7.03;;
9208;SDS011;4639;48.862;9.188;2022-09-21T07:27:20;11.55;;;6.60;;
9208;SDS011;4639;48.862;9.188;2022-09-21T07:29:46;9.75;;;6.85;;
9208;SDS011;4639;48.862;9.188;2022-09-21T07:32:12;8.23;;;7.13;;
9208;SDS011;4639;48.862;9.188;2022-09-21T07:34:37;10.05;;;7.22;;
9208;SDS011;4639;48.862;9.188;2022-09-21T07:37:03;8.50;;;6.60;;
9208;SDS011;4639;48.862;9.188;2022-09-21T07:39:29;10.52;;;6.93;;
9208;SDS011;4639;48.862;9.188;2022-09-21T07:41:55;14.80;;;7.20;;
9208;SDS011;4639;48.862;9.188;2022-09-21T07:44:22;12.35;;;7.10;;
9208;SDS011;4639;48.862;9.188;2022-09-21T07:46:48;8.57;;;6.57;;
9208;SDS011;4639;48.862;9.188;2022-09-21T07:49:14;11.57;;;6.60;;
9208;SDS011;4639;48.862;9.188;2022-09-21T07:51:40;8.35;;;6.15;;
9208;SDS011;4639;48.862;9.188;2022-09-21T07:54:05;11.85;;;6.20;;
9208;SDS011;4639;48.862;9.188;2022-09-21T07:56:35;6.80;;;5.90;;
9208;SDS011;4639;48.862;9.188;2022-09-21T07:59:01;9.23;;;5.38;;
9208;SDS011;4639;48.862;9.188;2022-09-21T08:01:31;7.20;;;5.60;;
9208;SDS011;4639;48.862;9.188;2022-09-21T08:04:02;6.50;;;5.78;;
9208;SDS011;4639;48.862;9.188;2022-09-21T08:06:30;10.65;;;6.10;;
9208;SDS011;4639;48.862;9.188;2022-09-21T08:08:57;11.30;;;6.57;;
9208;SDS011;4639;48.862;9.188;2022-09-21T08:11:26;9.70;;;5.93;;
9208;SDS011;4639;48.862;9.188;2022-09-21T08:13:55;7.93;;;5.47;;
9208;SDS011;4639;48.862;9.188;2022-09-21T08:16:26;10.32;;;5.35;;
9208;SDS011;4639;48.862;9.188;2022-09-21T08:18:53;7.60;;;5.65;;
9208;SDS011;4639;48.862;9.188;2022-09-21T08:21:19;11.90;;;5.03;;
9208;SDS011;4639;48.862;9.188;2022-09-21T08:23:44;9.32;;;5.00;;
9208;SDS011;4639;48.862;9.188;2022-09-21T08:26:13;8.57;;;4.82;;
9208;SDS011;4639;48.862;9.188;2022-09-21T08:28:46;7.53;;;4.22;;
9208;SDS011;4639;48.862;9.188;2022-09-21T08:31:15;7.20;;;3.70;;
9208;SDS011;4639;48.862;9.188;2022-09-21T08:33:43;8.32;;;3.63;;
9208;SDS011;4639;48.862;9.188;2022-09-21T08:36:09;6.63;;;3.47;;
9208;SDS011;4639;48.862;9.188;2022-09-21T08:38:35;11.95;;;4.18;;
9208;SDS011;4639;48.862;9.188;2022-09-21T08:41:12;4.75;;;4.03;;
9208;SDS011;4639;48.862;9.188;2022-09-21T08:43:46;5.72;;;3.60;;
9208;SDS011;4639;48.862;9.188;2022-09-21T08:46:25;5.35;;;3.63;;
9208;SDS011;4639;48.862;9.188;2022-09-21T08:48:54;7.65;;;3.53;;
9208;SDS011;4639;48.862;9.188;2022-09-21T08:51:31;4.57;;;3.63;;
9208;SDS011;4639;48.862;9.188;2022-09-21T08:54:03;5.40;;;3.10;;
9208;SDS011;4639;48.862;9.188;2022-09-21T08:56:36;4.57;;;3.10;;
9208;SDS011;4639;48.862;9.188;2022-09-21T08:59:02;5.57;;;2.92;;
9208;SDS011;4639;48.862;9.188;2022-09-21T09:07:20;5.57;;;3.13;;
9208;SDS011;4639;48.862;9.188;2022-09-21T09:12:30;3.95;;;2.92;;
9208;SDS011;4639;48.862;9.188;2022-09-21T09:21:05;9.38;;;3.30;;
9208;SDS011;4639;48.862;9.188;2022-09-21T09:23:39;4.53;;;3.03;;
9208;SDS011;4639;48.862;9.188;2022-09-21T09:26:54;7.75;;;3.00;;
9208;SDS011;4639;48.862;9.188;2022-09-21T09:29:14;2.97;;;2.63;;
9208;SDS011;4639;48.862;9.188;2022-09-21T09:31:53;31.13;;;5.82;;
9208;SDS011;4639;48.862;9.188;2022-09-21T09:34:28;5.60;;;3.00;;
9208;SDS011;4639;48.862;9.188;2022-09-21T09:37:04;6.45;;;2.72;;
9208;SDS011;4639;48.862;9.188;2022-09-21T09:39:39;3.85;;;2.60;;
9208;SDS011;4639;48.862;9.188;2022-09-21T09:47:54;3.85;;;3.00;;
9208;SDS011;4639;48.862;9.188;2022-09-21T09:50:27;4.22;;;2.33;;
9208;SDS011;4639;48.862;9.188;2022-09-21T09:53:06;5.13;;;3.08;;
9208;SDS011;4639;48.862;9.188;2022-09-21T09:55:37;5.55;;;2.90;;
9208;SDS011;4639;48.862;9.188;2022-09-21T09:58:13;6.22;;;2.80;;
9208;SDS011;4639;48.862;9.188;2022-09-21T10:00:45;5.00;;;2.90;;
9208;SDS011;4639;48.862;9.188;2022-09-21T10:03:17;5.60;;;3.13;;
9208;SDS011;4639;48.862;9.188;2022-09-21T10:05:47;5.70;;;2.67;;
9208;SDS011;4639;48.862;9.188;2022-09-21T10:11:15;6.35;;;3.28;;
9208;SDS011;4639;48.862;9.188;2022-09-21T10:13:42;4.18;;;2.20;;
9208;SDS011;4639;48.862;9.188;2022-09-21T10:16:14;5.68;;;3.05;;
9208;SDS011;4639;48.862;9.188;2022-09-21T10:18:48;7.95;;;3.25;;
9208;SDS011;4639;48.862;9.188;2022-09-21T10:21:18;5.05;;;2.75;;
9208;SDS011;4639;48.862;9.188;2022-09-21T10:23:48;3.95;;;2.25;;
9208;SDS011;4639;48.862;9.188;2022-09-21T10:26:41;4.00;;;2.15;;
9208;SDS011;4639;48.862;9.188;2022-09-21T10:34:32;5.85;;;1.95;;
9208;SDS011;4639;48.862;9.188;2022-09-21T10:37:04;2.83;;;2.10;;
9208;SDS011;4639;48.862;9.188;2022-09-21T10:39:49;2.58;;;1.75;;
9208;SDS011;4639;48.862;9.188;2022-09-21T10:42:16;3.78;;;1.80;;
9208;SDS011;4639;48.862;9.188;2022-09-21T10:44:43;3.25;;;1.80;;
9208;SDS011;4639;48.862;9.188;2022-09-21T10:49:53;3.20;;;1.73;;
9208;SDS011;4639;48.862;9.188;2022-09-21T10:52:21;2.90;;;1.60;;
9208;SDS011;4639;48.862;9.188;2022-09-21T10:54:59;2.38;;;1.50;;
9208;SDS011;4639;48.862;9.188;2022-09-21T10:57:26;2.75;;;1.60;;
9208;SDS011;4639;48.862;9.188;2022-09-21T10:59:53;3.60;;;1.60;;
9208;SDS011;4639;48.862;9.188;2022-09-21T11:02:25;5.35;;;1.80;;
9208;SDS011;4639;48.862;9.188;2022-09-21T11:04:59;3.72;;;1.60;;
9208;SDS011;4639;48.862;9.188;2022-09-21T11:07:34;1.73;;;1.50;;
9208;SDS011;4639;48.862;9.188;2022-09-21T11:10:18;3.05;;;1.77;;
9208;SDS011;4639;48.862;9.188;2022-09-21T11:13:08;2.72;;;1.58;;
9208;SDS011;4639;48.862;9.188;2022-09-21T11:16:09;1.98;;;1.23;;
9208;SDS011;4639;48.862;9.188;2022-09-21T11:21:59;1.67;;;1.20;;
9208;SDS011;4639;48.862;9.188;2022-09-21T11:30:02;1.13;;;0.80;;
9208;SDS011;4639;48.862;9.188;2022-09-21T11:35:29;1.30;;;0.82;;
9208;SDS011;4639;48.862;9.188;2022-09-21T11:38:12;1.58;;;0.93;;
9208;SDS011;4639;48.862;9.188;2022-09-21T11:52:19;2.22;;;0.90;;
9208;SDS011;4639;48.862;9.188;2022-09-21T12:10:16;0.50;;;0.50;;
9208;SDS011;4639;48.862;9.188;2022-09-21T12:15:18;1.58;;;0.60;;
9208;SDS011;4639;48.862;9.188;2022-09-21T12:17:52;2.47;;;0.80;;
9208;SDS011;4639;48.862;9.188;2022-09-21T12:20:42;1.92;;;0.98;;
9208;SDS011;4639;48.862;9.188;2022-09-21T12:23:21;3.40;;;0.80;;
9208;SDS011;4639;48.862;9.188;2022-09-21T12:25:53;1.08;;;0.80;;
9208;SDS011;4639;48.862;9.188;2022-09-21T12:28:28;1.77;;;1.00;;
9208;SDS011;4639;48.862;9.188;2022-09-21T12:30:57;1.33;;;0.75;;
9208;SDS011;4639;48.862;9.188;2022-09-21T12:33:40;1.10;;;0.80;;
9208;SDS011;4639;48.862;9.188;2022-09-21T12:36:28;1.05;;;0.80;;
9208;SDS011;4639;48.862;9.188;2022-09-21T12:42:21;1.23;;;0.80;;
9208;SDS011;4639;48.862;9.188;2022-09-21T12:44:55;2.63;;;1.10;;
9208;SDS011;4639;48.862;9.188;2022-09-21T12:53:37;3.20;;;0.85;;
9208;SDS011;4639;48.862;9.188;2022-09-21T12:59:17;2.97;;;0.90;;
9208;SDS011;4639;48.862;9.188;2022-09-21T13:01:55;1.42;;;0.82;;
9208;SDS011;4639;48.862;9.188;2022-09-21T13:09:21;2.75;;;0.80;;
9208;SDS011;4639;48.862;9.188;2022-09-21T13:11:50;3.10;;;1.05;;
9208;SDS011;4639;48.862;9.188;2022-09-21T13:14:20;2.55;;;1.10;;
9208;SDS011;4639;48.862;9.188;2022-09-21T13:16:52;2.45;;;0.80;;
9208;SDS011;4639;48.862;9.188;2022-09-21T13:19:27;3.53;;;1.00;;
9208;SDS011;4639;48.862;9.188;2022-09-21T13:33:02;1.33;;;1.00;;
9208;SDS011;4639;48.862;9.188;2022-09-21T13:35:50;1.17;;;0.70;;
9208;SDS011;4639;48.862;9.188;2022-09-21T13:49:00;1.65;;;0.90;;
9208;SDS011;4639;48.862;9.188;2022-09-21T13:51:32;0.80;;;0.70;;
9208;SDS011;4639;48.862;9.188;2022-09-21T13:53:58;1.83;;;1.00;;
9208;SDS011;4639;48.862;9.188;2022-09-21T13:56:26;1.30;;;0.82;;
9208;SDS011;4639;48.862;9.188;2022-09-21T13:58:53;3.20;;;1.13;;
9208;SDS011;4639;48.862;9.188;2022-09-21T14:01:22;0.85;;;0.80;;
9208;SDS011;4639;48.862;9.188;2022-09-21T14:03:57;0.77;;;0.77;;
9208;SDS011;4639;48.862;9.188;2022-09-21T14:06:28;1.75;;;1.08;;
9208;SDS011;4639;48.862;9.188;2022-09-21T14:09:00;2.30;;;1.02;;
9208;SDS011;4639;48.862;9.188;2022-09-21T14:11:32;1.67;;;0.73;;
9208;SDS011;4639;48.862;9.188;2022-09-21T14:16:51;0.90;;;0.80;;
9208;SDS011;4639;48.862;9.188;2022-09-21T14:24:35;0.93;;;0.90;;
9208;SDS011;4639;48.862;9.188;2022-09-21T14:30:03;2.75;;;0.90;;
9208;SDS011;4639;48.862;9.188;2022-09-21T14:35:25;1.10;;;1.00;;
9208;SDS011;4639;48.862;9.188;2022-09-21T14:37:57;1.58;;;0.90;;
9208;SDS011;4639;48.862;9.188;2022-09-21T14:40:34;2.00;;;1.33;;
9208;SDS011;4639;48.862;9.188;2022-09-21T14:43:05;1.55;;;1.10;;
9208;SDS011;4639;48.862;9.188;2022-09-21T14:54:21;1.15;;;0.80;;
9208;SDS011;4639;48.862;9.188;2022-09-21T15:13:35;1.27;;;0.73;;
9208;SDS011;4639;48.862;9.188;2022-09-21T15:19:13;1.00;;;0.90;;
9208;SDS011;4639;48.862;9.188;2022-09-21T15:21:41;1.05;;;0.88;;
9208;SDS011;4639;48.862;9.188;2022-09-21T15:24:30;1.80;;;0.85;;
9208;SDS011;4639;48.862;9.188;2022-09-21T15:27:07;1.17;;;0.80;;
9208;SDS011;4639;48.862;9.188;2022-09-21T15:29:40;1.42;;;0.70;;
9208;SDS011;4639;48.862;9.188;2022-09-21T15:32:54;2.15;;;1.10;;
9208;SDS011;4639;48.862;9.188;2022-09-21T15:35:01;1.42;;;0.90;;
9208;SDS011;4639;48.862;9.188;2022-09-21T15:37:35;1.25;;;1.00;;
9208;SDS011;4639;48.862;9.188;2022-09-21T15:40:05;1.30;;;1.02;;
9208;SDS011;4639;48.862;9.188;2022-09-21T15:42:47;1.35;;;0.80;;
9208;SDS011;4639;48.862;9.188;2022-09-21T15:45:28;1.00;;;0.75;;
9208;SDS011;4639;48.862;9.188;2022-09-21T15:48:19;1.17;;;0.98;;
9208;SDS011;4639;48.862;9.188;2022-09-21T15:50:53;1.15;;;0.80;;
9208;SDS011;4639;48.862;9.188;2022-09-21T15:53:30;1.33;;;0.90;;
9208;SDS011;4639;48.862;9.188;2022-09-21T15:55:59;1.13;;;1.02;;
9208;SDS011;4639;48.862;9.188;2022-09-21T16:01:08;1.27;;;1.02;;
9208;SDS011;4639;48.862;9.188;2022-09-21T16:03:39;1.80;;;1.08;;
9208;SDS011;4639;48.862;9.188;2022-09-21T16:08:46;1.77;;;1.15;;
9208;SDS011;4639;48.862;9.188;2022-09-21T16:13:59;1.83;;;1.08;;
9208;SDS011;4639;48.862;9.188;2022-09-21T16:19:39;2.03;;;1.40;;
9208;SDS011;4639;48.862;9.188;2022-09-21T16:22:12;1.83;;;0.90;;
9208;SDS011;4639;48.862;9.188;2022-09-21T16:24:51;1.17;;;1.00;;
9208;SDS011;4639;48.862;9.188;2022-09-21T16:27:19;1.33;;;1.08;;
9208;SDS011;4639;48.862;9.188;2022-09-21T16:29:47;1.08;;;0.93;;
9208;SDS011;4639;48.862;9.188;2022-09-21T16:34:43;2.15;;;0.93;;
9208;SDS011;4639;48.862;9.188;2022-09-21T16:39:57;2.03;;;1.10;;
9208;SDS011;4639;48.862;9.188;2022-09-21T16:42:24;1.10;;;1.00;;
9208;SDS011;4639;48.862;9.188;2022-09-21T16:44:55;1.77;;;1.17;;
9208;SDS011;4639;48.862;9.188;2022-09-21T16:47:21;1.40;;;1.17;;
9208;SDS011;4639;48.862;9.188;2022-09-21T16:49:49;1.92;;;1.10;;
9208;SDS011;4639;48.862;9.188;2022-09-21T16:52:20;1.05;;;0.90;;
9208;SDS011;4639;48.862;9.188;2022-09-21T16:54:47;1.70;;;1.20;;
9208;SDS011;4639;48.862;9.188;2022-09-21T16:57:13;3.10;;;1.30;;
9208;SDS011;4639;48.862;9.188;2022-09-21T16:59:39;1.10;;;1.00;;
9208;SDS011;4639;48.862;9.188;2022-09-21T17:02:08;1.73;;;1.00;;
9208;SDS011;4639;48.862;9.188;2022-09-21T17:04:36;1.33;;;1.13;;
9208;SDS011;4639;48.862;9.188;2022-09-21T17:07:04;1.30;;;1.20;;
9208;SDS011;4639;48.862;9.188;2022-09-21T17:09:37;1.73;;;1.50;;
9208;SDS011;4639;48.862;9.188;2022-09-21T17:12:10;2.55;;;2.15;;
9208;SDS011;4639;48.862;9.188;2022-09-21T17:14:37;2.13;;;1.50;;
9208;SDS011;4639;48.862;9.188;2022-09-21T17:17:05;2.35;;;1.60;;
9208;SDS011;4639;48.862;9.188;2022-09-21T17:19:41;2.63;;;1.50;;
9208;SDS011;4639;48.862;9.188;2022-09-21T17:22:08;2.08;;;1.60;;
9208;SDS011;4639;48.862;9.188;2022-09-21T17:24:41;4.05;;;1.50;;
9208;SDS011;4639;48.862;9.188;2022-09-21T17:27:20;1.90;;;1.50;;
9208;SDS011;4639;48.862;9.188;2022-09-21T17:29:50;1.48;;;1.33;;
9208;SDS011;4639;48.862;9.188;2022-09-21T17:32:20;3.88;;;2.00;;
9208;SDS011;4639;48.862;9.188;2022-09-21T17:37:37;1.85;;;1.55;;
9208;SDS011;4639;48.862;9.188;2022-09-21T17:40:06;3.38;;;1.58;;
9208;SDS011;4639;48.862;9.188;2022-09-21T17:42:33;2.00;;;1.77;;
9208;SDS011;4639;48.862;9.188;2022-09-21T17:47:43;2.08;;;1.48;;
9208;SDS011;4639;48.862;9.188;2022-09-21T17:52:41;6.40;;;1.98;;
9208;SDS011;4639;48.862;9.188;2022-09-21T17:55:26;2.28;;;1.40;;
9208;SDS011;4639;48.862;9.188;2022-09-21T17:57:58;2.10;;;1.60;;
9208;SDS011;4639;48.862;9.188;2022-09-21T18:05:47;2.83;;;1.80;;
9208;SDS011;4639;48.862;9.188;2022-09-21T18:08:17;2.67;;;1.60;;
9208;SDS011;4639;48.862;9.188;2022-09-21T18:10:44;2.55;;;1.90;;
9208;SDS011;4639;48.862;9.188;2022-09-21T18:13:45;3.03;;;2.40;;
9208;SDS011;4639;48.862;9.188;2022-09-21T18:21:46;2.65;;;2.15;;
9208;SDS011;4639;48.862;9.188;2022-09-21T18:26:49;4.32;;;2.65;;
9208;SDS011;4639;48.862;9.188;2022-09-21T18:29:21;3.25;;;2.22;;
9208;SDS011;4639;48.862;9.188;2022-09-21T18:31:50;5.50;;;2.47;;
9208;SDS011;4639;48.862;9.188;2022-09-21T18:34:42;3.65;;;2.22;;
9208;SDS011;4639;48.862;9.188;2022-09-21T18:37:33;3.88;;;2.15;;
9208;SDS011;4639;48.862;9.188;2022-09-21T18:42:58;3.40;;;2.60;;
9208;SDS011;4639;48.862;9.188;2022-09-21T18:45:46;5.68;;;2.78;;
9208;SDS011;4639;48.862;9.188;2022-09-21T18:48:34;5.13;;;2.83;;
9208;SDS011;4639;48.862;9.188;2022-09-21T18:51:21;3.20;;;2.47;;
9208;SDS011;4639;48.862;9.188;2022-09-21T18:53:55;5.78;;;3.28;;
9208;SDS011;4639;48.862;9.188;2022-09-21T18:56:25;3.70;;;3.10;;
9208;SDS011;4639;48.862;9.188;2022-09-21T18:58:54;4.68;;;2.78;;
9208;SDS011;4639;48.862;9.188;2022-09-21T19:01:22;4.45;;;3.60;;
9208;SDS011;4639;48.862;9.188;2022-09-21T19:03:49;6.80;;;5.25;;
9208;SDS011;4639;48.862;9.188;2022-09-21T19:14:28;6.43;;;4.78;;
9208;SDS011;4639;48.862;9.188;2022-09-21T19:26:01;10.13;;;5.68;;
9208;SDS011;4639;48.862;9.188;2022-09-21T19:28:45;5.35;;;4.30;;
9208;SDS011;4639;48.862;9.188;2022-09-21T19:31:19;7.97;;;5.18;;
9208;SDS011;4639;48.862;9.188;2022-09-21T19:33:45;10.32;;;5.90;;
9208;SDS011;4639;48.862;9.188;2022-09-21T19:36:12;9.07;;;5.70;;
9208;SDS011;4639;48.862;9.188;2022-09-21T19:38:38;8.88;;;6.00;;
9208;SDS011;4639;48.862;9.188;2022-09-21T19:44:23;8.27;;;4.63;;
9208;SDS011;4639;48.862;9.188;2022-09-21T19:49:52;6.28;;;4.55;;
9208;SDS011;4639;48.862;9.188;2022-09-21T19:52:21;5.20;;;4.05;;
9208;SDS011;4639;48.862;9.188;2022-09-21T19:54:52;6.00;;;3.65;;
9208;SDS011;4639;48.862;9.188;2022-09-21T19:57:40;6.88;;;3.90;;
9208;SDS011;4639;48.862;9.188;2022-09-21T20:00:32;5.22;;;4.43;;
9208;SDS011;4639;48.862;9.188;2022-09-21T20:03:02;6.15;;;4.13;;